Forside
METAR-TAF:

METAR-TAF

Lufthavne :

Tjita, Rusland

Breddekreds: 52-05N, længdekreds: 113-29E, højde: 685 m

Aktuelle vejr

Denne rapport blev lavet for 19 minutter siden, kl. 16:30 UTC
Vind 4 kt fra nord
Temperatur -3°C
Fugtighed 74%
Tryk 1026 hPa
Sigt 10 km eller mere

METAR: UIAA 151630Z AUTO 36002MPS 9999 NCD M03/M07 Q1026 RMK QFE710/0947

Tid: 01:49 (16:49 UTC)

Vejrudsigter

Denne rapport blev lavet for 2 timer og 49 minutter siden, kl. 14:00 UTC
Foreløbig gælder fra 15 på 15 UTC til 16 på 15 UTC
Vind 6 kt fra nordøst
Sigt 10 km eller mere
Midlertidig
fra 15 på 15 UTC til 16 på 01 UTC
Sigt: 3100 m
dis

TAF: UIAA 151400Z 1515/1615 04003MPS 9999 NSC TEMPO 1515/1601 3100 BR

Vejrobservationer og prognoser fra mere end 4000 lufthavne (METAR og TAF).

De gule og røde prikker repræsenterer de meteorologiske stationer.

Flyt musen over at se navnet på stationen.

Så klik over at se vejr observationer og prognoser.

At skifte det kort: Klik på de grønne knapper med et sort kors for at zoome ind; på den grønne knap med en bindestreg for at zoome ud; eller på de grønne pile for tilstødende kort.


METAR-TAF: